Alyeska Resort
Hourly Weather - Base Weather Site
ALY_BASE_HR 12/4/2016
CLICK TO VIEW GRAPH!!

        DATE  TIME   Air  BATT   H2o   H2o   Rel
                    Temp  Volt  Inch Since  Hum%
                      F   AVG   1HR  0600   AVG

   12/4/2016 07:00    11 14.35  0.00  0.00    65
   12/4/2016 06:00    12 14.35  0.00  0.00    62
   12/4/2016 05:00    12 14.34  0.00  0.00    65
   12/4/2016 04:00    13 14.34  0.00  0.00    66
   12/4/2016 03:00    14 14.34  0.00  0.00    68
   12/4/2016 02:00    11 14.36  0.00  0.00    83
   12/4/2016 01:00     9 14.36  0.00  0.00    80
   12/3/2016 24:00    10 14.34  0.00  0.00    74
   12/3/2016 23:00    12 14.31  0.00  0.00    77
   12/3/2016 22:00    13 14.30  0.00  0.00    83
   12/3/2016 21:00    14 14.30  0.00  0.00    80
   12/3/2016 20:00    14 14.29  0.00  0.00    75
   12/3/2016 19:00    15 14.28  0.00  0.00    74
   12/3/2016 18:00    15 14.28  0.00  0.00    80
   12/3/2016 17:00    15 14.27  0.00  0.00    80
   12/3/2016 16:00    16 14.26  0.00  0.00    81
   12/3/2016 15:00    16 14.26  0.00  0.00    74
   12/3/2016 14:00    16 14.26  0.00  0.00    71
   12/3/2016 13:00    16 14.27  0.00  0.00    72
   12/3/2016 12:00    15 14.28  0.00  0.00    73
   12/3/2016 11:00    15 14.29  0.00  0.00    76
   12/3/2016 10:00    15 14.29  0.00  0.00    74
   12/3/2016 09:00    15 14.28  0.00  0.00    73
   12/3/2016 08:00    15 14.28  0.00  0.00    76


CLICK TO VIEW GRAPH!!